createdAt,value
2023-04-26T00:00:53.557Z,99660.59
2023-04-26T00:03:20.801Z,99649.50
2023-04-26T00:05:47.629Z,99659.66
2023-04-26T00:08:14.310Z,99652.84
2023-04-26T00:10:40.927Z,99653.25
2023-04-26T00:13:08.259Z,99663.88
2023-04-26T00:15:34.926Z,99653.94
2023-04-26T00:18:01.603Z,99652.66
2023-04-26T00:20:28.278Z,99655.47
2023-04-26T00:22:54.906Z,99654.34
2023-04-26T00:25:21.494Z,99664.94
2023-04-26T00:27:48.037Z,99677.53
2023-04-26T00:30:15.008Z,99673.44
2023-04-26T00:32:41.610Z,99676.13
2023-04-26T00:35:09.090Z,99670.75
2023-04-26T00:37:36.152Z,99676.44
2023-04-26T00:40:02.834Z,99687.50
2023-04-26T00:42:29.406Z,99682.56
2023-04-26T00:44:57.616Z,99683.56
2023-04-26T00:47:29.810Z,99687.84
2023-04-26T00:49:56.805Z,99686.19
2023-04-26T00:52:25.119Z,99680.22
2023-04-26T00:54:53.579Z,99689.88
2023-04-26T00:57:21.567Z,99688.25
2023-04-26T00:59:48.715Z,99684.16
2023-04-26T01:02:16.154Z,99686.75
2023-04-26T01:04:42.926Z,99686.34
2023-04-26T01:07:10.116Z,99683.38
2023-04-26T01:09:36.664Z,99680.59
2023-04-26T01:12:05.079Z,99693.72
2023-04-26T01:14:32.744Z,99694.19
2023-04-26T01:16:59.723Z,99693.63
2023-04-26T01:19:26.342Z,99700.25
2023-04-26T01:21:52.880Z,99695.63
2023-04-26T01:24:19.435Z,99713.72
2023-04-26T01:26:47.357Z,99715.53
2023-04-26T01:29:18.108Z,99713.00
2023-04-26T01:31:45.524Z,99709.75
2023-04-26T01:34:12.401Z,99718.78
2023-04-26T01:36:39.088Z,99717.97
2023-04-26T01:39:05.704Z,99724.47
2023-04-26T01:41:33.696Z,99724.88
2023-04-26T01:44:01.666Z,99728.84
2023-04-26T01:46:28.396Z,99738.84
2023-04-26T01:48:55.065Z,99729.53
2023-04-26T01:51:21.812Z,99741.28
2023-04-26T01:53:48.542Z,99744.34
2023-04-26T01:56:15.166Z,99746.47
2023-04-26T01:58:41.839Z,99749.44
2023-04-26T02:01:09.545Z,99759.59
2023-04-26T02:03:36.224Z,99743.88
2023-04-26T02:06:03.942Z,99753.34
2023-04-26T02:08:30.563Z,99748.25
2023-04-26T02:10:57.329Z,99747.13
2023-04-26T02:13:23.932Z,99750.38
2023-04-26T02:15:51.407Z,99755.75
2023-04-26T02:18:21.945Z,99761.53
2023-04-26T02:20:48.776Z,99765.47
2023-04-26T02:23:15.827Z,99759.28
2023-04-26T02:25:45.965Z,99754.72
2023-04-26T02:28:12.724Z,99765.75
2023-04-26T02:30:39.294Z,99760.81
2023-04-26T02:33:06.023Z,99757.56
2023-04-26T02:35:32.610Z,99761.50
2023-04-26T02:37:59.186Z,99762.03
2023-04-26T02:40:25.807Z,99769.22
2023-04-26T02:42:52.413Z,99766.84
2023-04-26T02:45:19.116Z,99764.97
2023-04-26T02:47:45.888Z,99762.31
2023-04-26T02:50:12.475Z,99774.72
2023-04-26T02:52:39.151Z,99772.03
2023-04-26T02:55:07.099Z,99777.69
2023-04-26T02:57:33.790Z,99787.56
2023-04-26T03:00:00.845Z,99782.34
2023-04-26T03:02:27.701Z,99781.50
2023-04-26T03:04:56.028Z,99787.09
2023-04-26T03:07:22.897Z,99792.75
2023-04-26T03:09:49.719Z,99800.09
2023-04-26T03:12:16.617Z,99802.44
2023-04-26T03:14:43.159Z,99800.31
2023-04-26T03:17:09.713Z,99807.78
2023-04-26T03:19:36.629Z,99806.19
2023-04-26T03:22:03.315Z,99813.78
2023-04-26T03:24:29.911Z,99807.84
2023-04-26T03:26:56.477Z,99810.94
2023-04-26T03:29:23.013Z,99808.50
2023-04-26T03:31:49.620Z,99815.69
2023-04-26T03:34:16.182Z,99818.38
2023-04-26T03:36:42.740Z,99812.63
2023-04-26T03:39:10.312Z,99811.63
2023-04-26T03:41:39.539Z,99822.81
2023-04-26T03:44:06.675Z,99816.47
2023-04-26T03:46:33.292Z,99820.25
2023-04-26T03:48:59.928Z,99825.63
2023-04-26T03:51:28.342Z,99821.81
2023-04-26T03:53:55.625Z,99830.72
2023-04-26T03:56:22.253Z,99825.22
2023-04-26T03:58:48.928Z,99836.78
2023-04-26T04:01:15.836Z,99841.16
2023-04-26T04:03:42.609Z,99845.94
2023-04-26T04:06:09.480Z,99852.00
2023-04-26T04:08:36.271Z,99854.69
2023-04-26T04:11:02.816Z,99858.09
2023-04-26T04:13:29.463Z,99862.59
2023-04-26T04:15:56.270Z,99865.97
2023-04-26T04:18:22.888Z,99865.03
2023-04-26T04:20:49.497Z,99867.09
2023-04-26T04:23:16.085Z,99863.47
2023-04-26T04:25:44.054Z,99865.16
2023-04-26T04:28:12.028Z,99885.59
2023-04-26T04:30:38.593Z,99887.28
2023-04-26T04:33:05.443Z,99897.19
2023-04-26T04:35:34.238Z,99900.09
2023-04-26T04:38:03.109Z,99909.84
2023-04-26T04:40:30.379Z,99909.13
2023-04-26T04:42:56.942Z,99913.38
2023-04-26T04:45:23.730Z,99917.03
2023-04-26T04:47:50.443Z,99917.03
2023-04-26T04:50:17.728Z,99918.88
2023-04-26T04:52:44.472Z,99925.09
2023-04-26T04:55:11.158Z,99926.19
2023-04-26T04:57:37.801Z,99936.16
2023-04-26T05:00:14.286Z,99922.66
2023-04-26T05:02:41.271Z,99934.81
2023-04-26T05:05:08.422Z,99936.75
2023-04-26T05:07:35.224Z,99942.00
2023-04-26T05:10:02.171Z,99945.13
2023-04-26T05:12:28.766Z,99944.03
2023-04-26T05:14:55.513Z,99947.16
2023-04-26T05:17:22.065Z,99947.63
2023-04-26T05:19:48.604Z,99953.16
2023-04-26T05:22:18.663Z,99957.31
2023-04-26T05:24:49.001Z,99952.28
2023-04-26T05:27:16.006Z,99959.78
2023-04-26T05:29:42.643Z,99963.63
2023-04-26T05:32:09.491Z,99964.63
2023-04-26T05:34:37.381Z,99955.88
2023-04-26T05:37:04.126Z,99965.38
2023-04-26T05:39:30.834Z,99965.13
2023-04-26T05:41:57.440Z,99964.56
2023-04-26T05:44:24.592Z,99967.97
2023-04-26T05:46:51.162Z,99962.38
2023-04-26T05:49:17.852Z,99958.41
2023-04-26T05:51:44.416Z,99962.53
2023-04-26T05:54:11.033Z,99967.25
2023-04-26T05:56:37.573Z,99967.28
2023-04-26T05:59:04.158Z,99968.84
2023-04-26T06:01:30.982Z,99964.31
2023-04-26T06:04:00.889Z,99968.28
2023-04-26T06:06:28.403Z,99967.75
2023-04-26T06:08:55.601Z,99972.69
2023-04-26T06:11:22.343Z,99979.63
2023-04-26T06:13:49.065Z,99982.50
2023-04-26T06:16:16.646Z,99984.91
2023-04-26T06:18:43.863Z,99990.13
2023-04-26T06:21:10.569Z,99987.19
2023-04-26T06:23:37.180Z,99986.75
2023-04-26T06:26:03.846Z,99997.25
2023-04-26T06:28:30.420Z,99991.72
2023-04-26T06:30:57.010Z,99990.72
2023-04-26T06:33:23.586Z,99981.69
2023-04-26T06:35:50.271Z,99984.94
2023-04-26T06:38:16.830Z,99985.09
2023-04-26T06:40:43.440Z,99988.19
2023-04-26T06:43:10.042Z,99982.13
2023-04-26T06:45:37.017Z,99992.59
2023-04-26T06:48:04.927Z,99994.84
2023-04-26T06:50:31.768Z,100005.31
2023-04-26T06:52:58.379Z,99995.41
2023-04-26T06:55:25.183Z,99998.53
2023-04-26T06:57:51.891Z,100007.84
2023-04-26T07:00:19.060Z,100004.03
2023-04-26T07:02:46.121Z,100001.78
2023-04-26T07:05:13.276Z,100008.28
2023-04-26T07:07:39.867Z,100001.19
2023-04-26T07:10:08.544Z,99998.78
2023-04-26T07:12:35.263Z,100002.03
2023-04-26T07:15:01.848Z,100003.88
2023-04-26T07:17:28.479Z,100006.00
2023-04-26T07:19:56.195Z,100008.09
2023-04-26T07:22:22.945Z,100012.91
2023-04-26T07:24:49.612Z,100020.00
2023-04-26T07:27:16.436Z,100012.34
2023-04-26T07:29:42.974Z,100016.22
2023-04-26T07:32:09.625Z,100021.47
2023-04-26T07:34:36.230Z,100028.63
2023-04-26T07:37:02.847Z,100023.59
2023-04-26T07:39:29.459Z,100032.63
2023-04-26T07:41:56.077Z,100023.66
2023-04-26T07:44:22.644Z,100044.03
2023-04-26T07:46:49.213Z,100041.13
2023-04-26T07:49:15.872Z,100040.84
2023-04-26T07:51:44.464Z,100049.72
2023-04-26T07:54:11.147Z,100046.56
2023-04-26T07:56:37.881Z,100042.59
2023-04-26T07:59:05.033Z,100055.41
2023-04-26T08:01:31.630Z,100051.38
2023-04-26T08:03:58.402Z,100058.25
2023-04-26T08:06:25.792Z,100050.97
2023-04-26T08:08:53.732Z,100060.63
2023-04-26T08:11:20.709Z,100071.41
2023-04-26T08:13:47.545Z,100048.06
2023-04-26T08:16:15.332Z,100066.97
2023-04-26T08:18:43.433Z,100073.91
2023-04-26T08:21:12.159Z,100062.53
2023-04-26T08:23:38.722Z,100062.50
2023-04-26T08:26:06.549Z,100077.41
2023-04-26T08:28:33.258Z,100065.38
2023-04-26T08:30:59.903Z,100070.16
2023-04-26T08:33:26.593Z,100061.09
2023-04-26T08:35:53.440Z,100065.03
2023-04-26T08:38:22.521Z,100067.94
2023-04-26T08:40:49.369Z,100064.44
2023-04-26T08:43:17.606Z,100081.50
2023-04-26T08:45:47.111Z,100075.03
2023-04-26T08:48:18.370Z,100073.72
2023-04-26T08:50:48.685Z,100083.72
2023-04-26T08:53:17.977Z,100076.19
2023-04-26T08:55:49.493Z,100083.69
2023-04-26T08:58:17.803Z,100092.31
2023-04-26T09:00:46.160Z,100093.66
2023-04-26T09:03:13.293Z,100075.41
2023-04-26T09:05:44.229Z,100088.31
2023-04-26T09:08:16.335Z,100081.06
2023-04-26T09:10:43.449Z,100078.59
2023-04-26T09:13:10.102Z,100076.16
2023-04-26T09:15:37.025Z,100072.66
2023-04-26T09:18:23.063Z,100075.56
2023-04-26T09:21:09.166Z,100068.97
2023-04-26T09:23:36.040Z,100084.00
2023-04-26T09:26:18.130Z,100077.94
2023-04-26T09:28:46.451Z,100070.50
2023-04-26T09:31:36.323Z,100067.09
2023-04-26T09:34:03.314Z,100078.78
2023-04-26T09:36:29.937Z,100074.41
2023-04-26T09:38:56.577Z,100082.88
2023-04-26T09:41:23.319Z,100078.47
2023-04-26T09:43:53.468Z,100072.88
2023-04-26T09:46:24.123Z,100077.25
2023-04-26T09:49:03.533Z,100086.22
2023-04-26T09:51:30.112Z,100075.53
2023-04-26T09:53:56.847Z,100065.50
2023-04-26T09:56:23.635Z,100061.38
2023-04-26T09:58:53.417Z,100069.94
2023-04-26T10:01:20.507Z,100067.56
2023-04-26T10:03:47.633Z,100071.72
2023-04-26T10:06:14.878Z,100064.03
2023-04-26T10:08:41.779Z,100068.28
2023-04-26T10:11:13.841Z,100081.50
2023-04-26T10:13:42.038Z,100074.56
2023-04-26T10:16:12.518Z,100069.28
2023-04-26T10:18:39.299Z,100068.78
2023-04-26T10:21:14.896Z,100081.34
2023-04-26T10:23:42.032Z,100077.06
2023-04-26T10:26:53.496Z,100080.81
2023-04-26T10:29:25.767Z,100072.16
2023-04-26T10:32:09.529Z,100068.97
2023-04-26T10:34:37.328Z,100075.94
2023-04-26T10:37:14.831Z,100085.06
2023-04-26T10:39:43.430Z,100077.63
2023-04-26T10:42:27.705Z,100088.38
2023-04-26T10:44:59.102Z,100086.97
2023-04-26T10:47:37.383Z,100090.72
2023-04-26T10:50:11.504Z,100082.97
2023-04-26T10:52:57.624Z,100073.47
2023-04-26T10:55:43.336Z,100068.69
2023-04-26T10:58:30.134Z,100072.25
2023-04-26T11:01:11.837Z,100072.56
2023-04-26T11:03:40.515Z,100091.63
2023-04-26T11:06:09.884Z,100092.78
2023-04-26T11:08:37.058Z,100092.31
2023-04-26T11:11:03.608Z,100093.16
2023-04-26T11:13:34.132Z,100099.59
2023-04-26T11:16:05.606Z,100082.00
2023-04-26T11:18:34.136Z,100083.28
2023-04-26T11:21:01.451Z,100072.28
2023-04-26T11:23:30.193Z,100079.09
2023-04-26T11:26:03.381Z,100080.63
2023-04-26T11:28:34.603Z,100096.13
2023-04-26T11:31:04.203Z,100087.19
2023-04-26T11:33:31.489Z,100091.28
2023-04-26T11:35:58.854Z,100094.53
2023-04-26T11:38:27.014Z,100089.47
2023-04-26T11:41:01.831Z,100091.34
2023-04-26T11:43:39.078Z,100096.19
2023-04-26T11:46:07.470Z,100093.38
2023-04-26T11:48:38.830Z,100083.19
2023-04-26T11:51:07.516Z,100080.63
2023-04-26T11:53:43.538Z,100073.19
2023-04-26T11:56:21.947Z,100090.66
2023-04-26T11:58:50.662Z,100091.97
2023-04-26T12:01:23.462Z,100093.50
2023-04-26T12:03:57.584Z,100094.00
2023-04-26T12:06:32.981Z,100101.13
2023-04-26T12:09:05.503Z,100097.06
2023-04-26T12:11:32.194Z,100087.13
2023-04-26T12:13:59.885Z,100082.38
2023-04-26T12:16:27.316Z,100076.81
2023-04-26T12:18:56.711Z,100075.78
2023-04-26T12:21:30.377Z,100079.59
2023-04-26T12:23:57.412Z,100086.56
2023-04-26T12:26:44.407Z,100087.13
2023-04-26T12:29:11.101Z,100091.09
2023-04-26T12:31:37.799Z,100103.31
2023-04-26T12:34:04.386Z,100103.94
2023-04-26T12:36:31.664Z,100100.97
2023-04-26T12:38:58.243Z,100104.75
2023-04-26T12:41:24.806Z,100114.59
2023-04-26T12:43:51.404Z,100097.63
2023-04-26T12:46:18.077Z,100105.41
2023-04-26T12:48:44.732Z,100105.84
2023-04-26T12:51:11.296Z,100103.03
2023-04-26T12:53:37.933Z,100107.63
2023-04-26T12:56:04.830Z,100116.19
2023-04-26T12:58:31.512Z,100123.47
2023-04-26T13:00:58.181Z,100117.72
2023-04-26T13:03:24.860Z,100124.47
2023-04-26T13:05:52.368Z,100119.91
2023-04-26T13:08:18.974Z,100116.69
2023-04-26T13:10:45.569Z,100111.38
2023-04-26T13:13:12.176Z,100121.84
2023-04-26T13:15:38.937Z,100116.66
2023-04-26T13:18:06.052Z,100116.56
2023-04-26T13:20:32.652Z,100114.06
2023-04-26T13:22:59.216Z,100119.22
2023-04-26T13:25:25.810Z,100121.22
2023-04-26T13:27:53.703Z,100126.63
2023-04-26T13:30:20.456Z,100138.13
2023-04-26T13:32:47.292Z,100141.75
2023-04-26T13:35:14.079Z,100135.66
2023-04-26T13:37:41.696Z,100147.00
2023-04-26T13:40:11.233Z,100139.50
2023-04-26T13:42:38.961Z,100140.94
2023-04-26T13:45:09.430Z,100130.91
2023-04-26T13:47:36.751Z,100136.28
2023-04-26T13:50:03.680Z,100133.50
2023-04-26T13:52:30.268Z,100124.91
2023-04-26T13:54:56.842Z,100134.84
2023-04-26T13:57:23.429Z,100137.28
2023-04-26T13:59:50.109Z,100145.13
2023-04-26T14:02:16.784Z,100146.97
2023-04-26T14:04:43.689Z,100146.97
2023-04-26T14:07:10.831Z,100134.81
2023-04-26T14:09:37.400Z,100143.78
2023-04-26T14:12:08.352Z,100154.84
2023-04-26T14:14:36.083Z,100160.41
2023-04-26T14:17:02.662Z,100162.25
2023-04-26T14:19:29.391Z,100147.16
2023-04-26T14:21:55.986Z,100151.94
2023-04-26T14:24:22.716Z,100152.59
2023-04-26T14:26:49.277Z,100148.19
2023-04-26T14:29:15.834Z,100138.16
2023-04-26T14:31:42.430Z,100134.94
2023-04-26T14:34:09.142Z,100124.06
2023-04-26T14:36:36.028Z,100128.72
2023-04-26T14:39:02.689Z,100141.47
2023-04-26T14:41:29.416Z,100150.81
2023-04-26T14:43:56.142Z,100138.38
2023-04-26T14:46:22.922Z,100140.13
2023-04-26T14:48:49.551Z,100138.72
2023-04-26T14:51:16.165Z,100139.69
2023-04-26T14:53:42.738Z,100150.28
2023-04-26T14:56:09.599Z,100161.69
2023-04-26T14:58:36.290Z,100164.94
2023-04-26T15:01:03.714Z,100168.78
2023-04-26T15:03:30.467Z,100175.06
2023-04-26T15:05:57.159Z,100169.94
2023-04-26T15:08:23.746Z,100175.63
2023-04-26T15:10:51.280Z,100178.41
2023-04-26T15:13:18.232Z,100173.00
2023-04-26T15:15:47.805Z,100172.94
2023-04-26T15:18:14.455Z,100179.69
2023-04-26T15:20:41.512Z,100173.06
2023-04-26T15:23:08.425Z,100171.00
2023-04-26T15:25:36.889Z,100157.00
2023-04-26T15:28:03.875Z,100162.59
2023-04-26T15:30:30.695Z,100153.25
2023-04-26T15:32:57.772Z,100154.34
2023-04-26T15:35:25.178Z,100153.06
2023-04-26T15:37:53.713Z,100156.41
2023-04-26T15:40:24.644Z,100160.38
2023-04-26T15:42:52.010Z,100155.66
2023-04-26T15:45:21.755Z,100160.47
2023-04-26T15:47:48.337Z,100160.16
2023-04-26T15:50:15.071Z,100161.13
2023-04-26T15:52:42.194Z,100171.84
2023-04-26T15:55:09.771Z,100176.84
2023-04-26T15:57:36.570Z,100188.88
2023-04-26T16:00:05.900Z,100189.34
2023-04-26T16:02:32.507Z,100202.69
2023-04-26T16:04:59.161Z,100190.47
2023-04-26T16:07:26.502Z,100193.88
2023-04-26T16:09:53.202Z,100198.97
2023-04-26T16:12:19.766Z,100208.94
2023-04-26T16:14:46.375Z,100208.78
2023-04-26T16:17:12.900Z,100203.53
2023-04-26T16:19:39.451Z,100198.16
2023-04-26T16:22:06.219Z,100195.50
2023-04-26T16:24:32.811Z,100193.97
2023-04-26T16:26:59.426Z,100188.69
2023-04-26T16:29:26.067Z,100188.69
2023-04-26T16:31:52.956Z,100192.06
2023-04-26T16:34:20.016Z,100201.66
2023-04-26T16:36:46.810Z,100199.00
2023-04-26T16:39:15.814Z,100208.28
2023-04-26T16:41:42.744Z,100222.69
2023-04-26T16:44:09.420Z,100221.16
2023-04-26T16:46:36.397Z,100224.38
2023-04-26T16:49:09.282Z,100220.78
2023-04-26T16:51:37.210Z,100232.50
2023-04-26T16:54:04.200Z,100227.84
2023-04-26T16:56:30.800Z,100242.25
2023-04-26T16:58:57.548Z,100244.22
2023-04-26T17:01:24.187Z,100243.81
2023-04-26T17:03:52.060Z,100251.53
2023-04-26T17:06:18.952Z,100258.81
2023-04-26T17:08:45.690Z,100244.22
2023-04-26T17:11:16.248Z,100257.00
2023-04-26T17:13:43.468Z,100264.00
2023-04-26T17:16:10.245Z,100256.88
2023-04-26T17:18:37.233Z,100246.34
2023-04-26T17:21:05.253Z,100249.13
2023-04-26T17:23:33.658Z,100255.91
2023-04-26T17:26:01.680Z,100250.34
2023-04-26T17:28:28.701Z,100261.41
2023-04-26T17:30:55.404Z,100263.72
2023-04-26T17:33:22.078Z,100268.31
2023-04-26T17:35:48.941Z,100265.69
2023-04-26T17:38:15.910Z,100272.66
2023-04-26T17:40:42.511Z,100272.00
2023-04-26T17:43:09.116Z,100275.88
2023-04-26T17:45:35.860Z,100285.88
2023-04-26T17:48:02.553Z,100284.75
2023-04-26T17:50:30.287Z,100280.91
2023-04-26T17:52:56.910Z,100291.56
2023-04-26T17:55:23.501Z,100297.09
2023-04-26T17:57:50.019Z,100302.03
2023-04-26T18:00:16.985Z,100305.16
2023-04-26T18:02:43.960Z,100304.72
2023-04-26T18:05:10.959Z,100304.72
2023-04-26T18:07:38.583Z,100311.94
2023-04-26T18:10:06.543Z,100302.25
2023-04-26T18:12:33.237Z,100315.41
2023-04-26T18:14:59.946Z,100317.47
2023-04-26T18:17:26.790Z,100324.69
2023-04-26T18:19:53.481Z,100327.03
2023-04-26T18:22:20.470Z,100333.47
2023-04-26T18:24:47.137Z,100330.34
2023-04-26T18:27:14.148Z,100331.97
2023-04-26T18:29:41.436Z,100331.84
2023-04-26T18:32:08.048Z,100331.25
2023-04-26T18:34:34.615Z,100344.03
2023-04-26T18:37:01.194Z,100345.09
2023-04-26T18:39:27.719Z,100342.06
2023-04-26T18:41:54.304Z,100350.00
2023-04-26T18:44:20.904Z,100352.16
2023-04-26T18:46:47.607Z,100355.00
2023-04-26T18:49:14.276Z,100355.91
2023-04-26T18:51:40.971Z,100364.00
2023-04-26T18:54:07.511Z,100363.78
2023-04-26T18:56:34.103Z,100366.81
2023-04-26T18:59:00.671Z,100371.75
2023-04-26T19:01:27.434Z,100376.75
2023-04-26T19:03:54.316Z,100378.22
2023-04-26T19:06:21.557Z,100379.66
2023-04-26T19:08:48.175Z,100379.19
2023-04-26T19:11:14.830Z,100376.13
2023-04-26T19:13:41.599Z,100381.63
2023-04-26T19:16:09.141Z,100372.84
2023-04-26T19:18:36.985Z,100382.47
2023-04-26T19:21:04.898Z,100385.88
2023-04-26T19:23:31.926Z,100376.97
2023-04-26T19:26:06.378Z,100376.25
2023-04-26T19:28:33.354Z,100385.28
2023-04-26T19:31:01.680Z,100376.84
2023-04-26T19:33:28.906Z,100382.38
2023-04-26T19:35:58.773Z,100380.63
2023-04-26T19:38:25.920Z,100382.09
2023-04-26T19:40:53.126Z,100377.72
2023-04-26T19:43:20.534Z,100376.84
2023-04-26T19:45:47.201Z,100385.03
2023-04-26T19:48:13.872Z,100389.16
2023-04-26T19:50:45.105Z,100382.69
2023-04-26T19:53:13.473Z,100378.66
2023-04-26T19:55:41.371Z,100387.78
2023-04-26T19:58:08.427Z,100383.06
2023-04-26T20:00:38.973Z,100389.50
2023-04-26T20:03:06.691Z,100394.59
2023-04-26T20:05:33.976Z,100397.50
2023-04-26T20:08:01.413Z,100394.22
2023-04-26T20:10:32.366Z,100400.56
2023-04-26T20:13:00.266Z,100394.31
2023-04-26T20:15:27.908Z,100397.38
2023-04-26T20:17:55.087Z,100397.94
2023-04-26T20:20:21.841Z,100393.81
2023-04-26T20:22:48.430Z,100392.94
2023-04-26T20:25:15.036Z,100396.09
2023-04-26T20:27:41.787Z,100403.88
2023-04-26T20:30:09.059Z,100404.94
2023-04-26T20:32:35.649Z,100401.41
2023-04-26T20:35:02.411Z,100407.47
2023-04-26T20:37:29.007Z,100411.25
2023-04-26T20:39:55.689Z,100412.31
2023-04-26T20:42:23.146Z,100421.34
2023-04-26T20:44:49.764Z,100414.28
2023-04-26T20:47:16.662Z,100419.53
2023-04-26T20:49:43.348Z,100423.91
2023-04-26T20:52:10.106Z,100419.28
2023-04-26T20:54:36.725Z,100421.13
2023-04-26T20:57:03.868Z,100425.72
2023-04-26T20:59:30.776Z,100431.22
2023-04-26T21:01:57.687Z,100423.03
2023-04-26T21:04:25.371Z,100430.59
2023-04-26T21:06:52.252Z,100431.88
2023-04-26T21:09:18.858Z,100436.41
2023-04-26T21:11:45.507Z,100432.22
2023-04-26T21:14:13.737Z,100434.28
2023-04-26T21:16:40.661Z,100440.72
2023-04-26T21:19:08.097Z,100442.00
2023-04-26T21:21:35.120Z,100452.94
2023-04-26T21:24:02.487Z,100447.59
2023-04-26T21:26:29.117Z,100458.19
2023-04-26T21:28:55.805Z,100451.56
2023-04-26T21:31:22.454Z,100453.59
2023-04-26T21:33:49.190Z,100454.81
2023-04-26T21:36:16.309Z,100455.13
2023-04-26T21:38:42.935Z,100456.34
2023-04-26T21:41:09.542Z,100453.00
2023-04-26T21:43:36.178Z,100459.75
2023-04-26T21:46:03.400Z,100468.44
2023-04-26T21:48:30.034Z,100471.44
2023-04-26T21:50:57.096Z,100472.28
2023-04-26T21:53:23.681Z,100464.94
2023-04-26T21:55:54.241Z,100474.13
2023-04-26T21:58:21.564Z,100475.72
2023-04-26T22:00:48.714Z,100482.13
2023-04-26T22:03:16.253Z,100476.06
2023-04-26T22:05:43.266Z,100480.34
2023-04-26T22:08:09.931Z,100482.66
2023-04-26T22:10:36.695Z,100481.69
2023-04-26T22:13:03.688Z,100490.63
2023-04-26T22:15:30.859Z,100488.75
2023-04-26T22:17:57.678Z,100497.59
2023-04-26T22:20:24.557Z,100495.63
2023-04-26T22:22:51.128Z,100505.81
2023-04-26T22:25:17.803Z,100501.75
2023-04-26T22:27:44.384Z,100506.41
2023-04-26T22:30:23.129Z,100502.91
2023-04-26T22:32:54.582Z,100508.97
2023-04-26T22:35:22.249Z,100505.53
2023-04-26T22:37:49.033Z,100514.69
2023-04-26T22:40:15.745Z,100510.00
2023-04-26T22:42:42.802Z,100513.94
2023-04-26T22:45:10.795Z,100510.38
2023-04-26T22:47:37.808Z,100499.25
2023-04-26T22:50:06.081Z,100510.88
2023-04-26T22:52:32.983Z,100510.88
2023-04-26T22:55:02.816Z,100514.59
2023-04-26T22:57:31.016Z,100520.97
2023-04-26T22:59:57.819Z,100518.31
2023-04-26T23:02:24.539Z,100516.38
2023-04-26T23:04:51.420Z,100513.72
2023-04-26T23:07:18.099Z,100515.06
2023-04-26T23:09:44.831Z,100517.81
2023-04-26T23:12:11.588Z,100526.84
2023-04-26T23:14:38.155Z,100530.63
2023-04-26T23:17:05.699Z,100532.72
2023-04-26T23:19:33.162Z,100537.34
2023-04-26T23:21:59.899Z,100542.13
2023-04-26T23:24:26.904Z,100550.13
2023-04-26T23:26:53.603Z,100544.28
2023-04-26T23:29:20.204Z,100546.44
2023-04-26T23:31:46.858Z,100547.41
2023-04-26T23:34:13.992Z,100547.47
2023-04-26T23:36:41.190Z,100546.72
2023-04-26T23:39:08.775Z,100549.56
2023-04-26T23:41:35.830Z,100542.72
2023-04-26T23:44:02.416Z,100552.69
2023-04-26T23:46:29.304Z,100550.03
2023-04-26T23:48:56.108Z,100547.59
2023-04-26T23:51:22.792Z,100552.25
2023-04-26T23:53:49.353Z,100550.38
2023-04-26T23:56:16.223Z,100554.66
2023-04-26T23:58:42.881Z,100553.44
